Terminal Aerodrome Forecast
Issued by NWS Austin/San Antonio, TX

Home | Current Version | Previous Version | Text Only | Print | Product List | Glossary On
Versions: 1 2 3 4 5 6 7 8 9 10 11 12 13 14 15 16
000
FTUS44 KEWX 200956 AAC
TAFSAT
TAF AMD
KSAT 200956Z 2010/2112 01003KT P6SM BKN012 BKN045 BKN250
     FM201300 VRB03KT P6SM VCSH BKN008 OVC040
     FM201600 15007KT P6SM BKN012 BKN050
     FM201900 16009KT P6SM BKN040
     FM210500 15007KT P6SM OVC010=

USA.gov is the U.S. government's official web portal to all federal, state and local government web resources and services.